Time;durP1;ratioP1;P1;durP2;ratioP2;P2;SDS_P1;SDS_P2;PMS_P1;PMS_P2;Temp;Humidity;BMP_temperature;BMP_pressure;BME280_temperature;BME280_humidity;BME280_pressure;Samples;Min_cycle;Max_cycle;Signal;HPM_P1;HPM_P2
2023/12/04 00:00:21;;;;;;;34.23;13.00;;;;;;;;;;5067493;28;20500;-75
2023/12/04 00:02:46;;;;;;;36.80;14.17;;;;;;;;;;5067466;28;20145;-75
2023/12/04 00:05:12;;;;;;;38.90;14.27;;;;;;;;;;5069068;28;20032;-75
2023/12/04 00:07:37;;;;;;;29.10;13.53;;;;;;;;;;5067907;28;20158;-73
2023/12/04 00:10:04;;;;;;;29.43;12.93;;;;;;;;;;5067615;28;20043;-74
2023/12/04 00:12:29;;;;;;;39.47;17.07;;;;;;;;;;5067458;28;20028;-75
2023/12/04 00:14:55;;;;;;;36.40;14.80;;;;;;;;;;5067006;28;20388;-74
2023/12/04 00:17:22;;;;;;;37.60;16.00;;;;;;;;;;5067202;28;20396;-75
2023/12/04 00:19:48;;;;;;;32.17;14.83;;;;;;;;;;5068757;28;20062;-75
2023/12/04 00:22:13;;;;;;;43.27;14.53;;;;;;;;;;5067145;28;20476;-75
2023/12/04 00:24:39;;;;;;;30.07;13.13;;;;;;;;;;5068570;28;20024;-78
2023/12/04 00:27:04;;;;;;;30.77;14.53;;;;;;;;;;5067478;28;20029;-77
2023/12/04 00:29:30;;;;;;;32.50;15.37;;;;;;;;;;5067605;28;20377;-73
2023/12/04 00:31:56;;;;;;;42.90;13.23;;;;;;;;;;5067449;28;20077;-76
2023/12/04 00:34:22;;;;;;;24.00;11.03;;;;;;;;;;5067163;28;20032;-75
2023/12/04 00:36:48;;;;;;;31.90;13.37;;;;;;;;;;5068480;28;20036;-74
2023/12/04 00:39:13;;;;;;;37.40;14.23;;;;;;;;;;5068399;28;20039;-75
2023/12/04 00:41:39;;;;;;;28.77;12.80;;;;;;;;;;5067077;28;20054;-75
2023/12/04 00:44:05;;;;;;;29.87;12.10;;;;;;;;;;5067033;28;20481;-75
2023/12/04 00:46:30;;;;;;;32.50;13.53;;;;;;;;;;5067279;28;20032;-76
2023/12/04 00:48:56;;;;;;;25.97;12.07;;;;;;;;;;5067159;28;20096;-76
2023/12/04 00:51:21;;;;;;;26.13;13.03;;;;;;;;;;5068893;28;20025;-75
2023/12/04 00:53:47;;;;;;;26.40;11.13;;;;;;;;;;5067524;28;20031;-74
2023/12/04 00:56:12;;;;;;;30.83;13.37;;;;;;;;;;5067184;28;20296;-76
2023/12/04 00:58:38;;;;;;;34.77;14.67;;;;;;;;;;5068431;28;20024;-75
2023/12/04 01:01:04;;;;;;;30.83;14.27;;;;;;;;;;5068180;28;20460;-75
2023/12/04 01:03:32;;;;;;;30.90;12.20;;;;;;;;;;5068414;28;20049;-75
2023/12/04 01:05:59;;;;;;;27.10;11.60;;;;;;;;;;5067231;28;20075;-75
2023/12/04 01:08:24;;;;;;;35.07;14.23;;;;;;;;;;5067591;28;20024;-73
2023/12/04 01:10:50;;;;;;;26.00;12.60;;;;;;;;;;5067840;28;20035;-73
2023/12/04 01:13:15;;;;;;;27.47;12.97;;;;;;;;;;5067286;28;20387;-74
2023/12/04 01:15:42;;;;;;;24.57;13.87;;;;;;;;;;5067275;28;20086;-73
2023/12/04 01:18:08;;;;;;;35.10;13.83;;;;;;;;;;5067207;28;20056;-76
2023/12/04 01:20:34;;;;;;;25.37;13.63;;;;;;;;;;5068472;28;20115;-75
2023/12/04 01:22:59;;;;;;;26.60;12.67;;;;;;;;;;5066553;28;20157;-77
2023/12/04 01:25:25;;;;;;;34.63;14.23;;;;;;;;;;5066957;28;20047;-75
2023/12/04 01:27:51;;;;;;;37.50;13.90;;;;;;;;;;5067089;28;20487;-76
2023/12/04 01:30:18;;;;;;;31.60;15.37;;;;;;;;;;5066811;28;20050;-76
2023/12/04 01:32:43;;;;;;;30.13;13.50;;;;;;;;;;5067558;28;20036;-75
2023/12/04 01:35:09;;;;;;;34.37;13.50;;;;;;;;;;5068409;28;20039;-75
2023/12/04 01:37:34;;;;;;;40.20;14.43;;;;;;;;;;5067910;28;20036;-74
2023/12/04 01:40:00;;;;;;;30.73;15.07;;;;;;;;;;5066571;28;20028;-75
2023/12/04 01:42:26;;;;;;;33.47;15.20;;;;;;;;;;5066952;28;20028;-76
2023/12/04 01:44:51;;;;;;;33.43;16.47;;;;;;;;;;5067022;28;20033;-76
2023/12/04 01:47:17;;;;;;;34.73;14.90;;;;;;;;;;5071404;28;20053;-75
2023/12/04 01:49:43;;;;;;;35.07;14.00;;;;;;;;;;5074151;28;20392;-75
2023/12/04 01:52:10;;;;;;;28.77;13.20;;;;;;;;;;5075806;28;20028;-74
2023/12/04 01:54:35;;;;;;;33.93;15.40;;;;;;;;;;5072734;28;20024;-76
2023/12/04 01:57:03;;;;;;;38.50;14.67;;;;;;;;;;5070233;28;20035;-77
2023/12/04 01:59:28;;;;;;;29.17;13.87;;;;;;;;;;5084388;28;20466;-73
2023/12/04 02:01:55;;;;;;;25.57;11.33;;;;;;;;;;5086379;28;20029;-76
2023/12/04 02:04:21;;;;;;;32.73;14.50;;;;;;;;;;5071305;28;20704;-77
2023/12/04 02:06:46;;;;;;;41.43;15.73;;;;;;;;;;5066465;28;20457;-77
2023/12/04 02:09:12;;;;;;;38.90;15.33;;;;;;;;;;5067906;28;20060;-75
2023/12/04 02:11:39;;;;;;;34.00;14.27;;;;;;;;;;5068121;28;20048;-74
2023/12/04 02:14:05;;;;;;;32.10;12.53;;;;;;;;;;5070025;28;20097;-76
2023/12/04 02:16:34;;;;;;;28.53;13.33;;;;;;;;;;5071359;28;20510;-76
2023/12/04 02:19:00;;;;;;;31.70;14.47;;;;;;;;;;5071344;28;20036;-80
2023/12/04 02:21:25;;;;;;;36.17;16.20;;;;;;;;;;5072092;28;20066;-74
2023/12/04 02:23:52;;;;;;;27.67;12.33;;;;;;;;;;5070817;28;20522;-76
2023/12/04 02:26:24;;;;;;;37.47;14.70;;;;;;;;;;5069348;28;20402;-75
2023/12/04 02:28:55;;;;;;;30.73;14.93;;;;;;;;;;5071489;28;20029;-74
2023/12/04 02:31:23;;;;;;;31.17;14.50;;;;;;;;;;5069834;28;20107;-75
2023/12/04 02:33:53;;;;;;;33.73;14.23;;;;;;;;;;5069631;28;20017;-75
2023/12/04 02:36:20;;;;;;;27.63;12.00;;;;;;;;;;5070853;28;20021;-77
2023/12/04 02:38:46;;;;;;;31.90;13.57;;;;;;;;;;5071516;28;20461;-74
2023/12/04 02:41:11;;;;;;;32.20;13.90;;;;;;;;;;5070228;28;20082;-77
2023/12/04 02:43:37;;;;;;;29.47;12.60;;;;;;;;;;5070381;28;20017;-76
2023/12/04 02:46:03;;;;;;;35.07;12.70;;;;;;;;;;5069801;28;20561;-76
2023/12/04 02:48:30;;;;;;;29.67;12.83;;;;;;;;;;5069845;28;20111;-76
2023/12/04 02:50:56;;;;;;;33.40;14.80;;;;;;;;;;5070824;28;20050;-73
2023/12/04 02:53:21;;;;;;;31.60;14.40;;;;;;;;;;5070561;28;20016;-75
2023/12/04 02:55:47;;;;;;;23.77;13.33;;;;;;;;;;5069722;28;20622;-75
2023/12/04 02:58:12;;;;;;;33.90;13.83;;;;;;;;;;5069445;28;20464;-75
2023/12/04 03:00:38;;;;;;;28.17;12.23;;;;;;;;;;5069631;28;20035;-75
2023/12/04 03:03:03;;;;;;;28.03;12.33;;;;;;;;;;5069073;28;20059;-75
2023/12/04 03:05:29;;;;;;;31.23;14.30;;;;;;;;;;5069271;28;20032;-76
2023/12/04 03:07:54;;;;;;;36.83;16.57;;;;;;;;;;5069640;28;20051;-76
2023/12/04 03:10:21;;;;;;;28.30;13.90;;;;;;;;;;5069359;28;20021;-77
2023/12/04 03:12:47;;;;;;;26.97;13.57;;;;;;;;;;5069428;28;20029;-76
2023/12/04 03:15:12;;;;;;;28.07;13.43;;;;;;;;;;5069175;28;20054;-75
2023/12/04 03:17:39;;;;;;;33.70;14.87;;;;;;;;;;5068993;28;20027;-76
2023/12/04 03:20:08;;;;;;;31.90;13.37;;;;;;;;;;5068928;28;20054;-75
2023/12/04 03:22:34;;;;;;;39.13;15.63;;;;;;;;;;5069314;28;20098;-75
2023/12/04 03:25:00;;;;;;;28.60;12.63;;;;;;;;;;5048120;28;20123;-74
2023/12/04 03:27:25;;;;;;;25.83;12.50;;;;;;;;;;5065216;28;20053;-75
2023/12/04 03:29:51;;;;;;;28.33;12.73;;;;;;;;;;5050274;28;20032;-76
2023/12/04 03:32:16;;;;;;;29.67;13.97;;;;;;;;;;5049917;28;20082;-76
2023/12/04 03:34:42;;;;;;;27.60;12.93;;;;;;;;;;5065680;28;20028;-76
2023/12/04 03:37:07;;;;;;;28.90;12.37;;;;;;;;;;5068147;28;20408;-77
2023/12/04 03:39:33;;;;;;;24.70;12.30;;;;;;;;;;5068601;28;20035;-76
2023/12/04 03:41:58;;;;;;;22.70;11.20;;;;;;;;;;5069900;28;20025;-77
2023/12/04 03:44:25;;;;;;;26.97;11.87;;;;;;;;;;5068185;28;20448;-76
2023/12/04 03:46:51;;;;;;;28.27;11.63;;;;;;;;;;5068472;28;20279;-75
2023/12/04 03:49:17;;;;;;;27.63;13.80;;;;;;;;;;5068300;28;20043;-75
2023/12/04 03:51:42;;;;;;;30.57;13.63;;;;;;;;;;5068087;28;20059;-76
2023/12/04 03:54:08;;;;;;;29.97;12.90;;;;;;;;;;5068172;28;20066;-78
2023/12/04 03:56:34;;;;;;;31.53;12.40;;;;;;;;;;5068188;28;20602;-74
2023/12/04 03:58:59;;;;;;;28.90;12.33;;;;;;;;;;5070044;28;20043;-76
2023/12/04 04:01:25;;;;;;;27.57;12.90;;;;;;;;;;5068341;28;20107;-76
2023/12/04 04:03:50;;;;;;;29.53;12.00;;;;;;;;;;5069858;28;20120;-75
2023/12/04 04:06:16;;;;;;;33.17;12.93;;;;;;;;;;5068344;28;20032;-77
2023/12/04 04:08:41;;;;;;;34.60;13.83;;;;;;;;;;5069768;28;20024;-77
2023/12/04 04:11:07;;;;;;;24.00;12.43;;;;;;;;;;5068679;28;20078;-77
2023/12/04 04:13:33;;;;;;;34.70;13.77;;;;;;;;;;5070939;28;20028;-74
2023/12/04 04:15:58;;;;;;;26.43;11.67;;;;;;;;;;5069367;28;20044;-73
2023/12/04 04:18:24;;;;;;;34.40;13.03;;;;;;;;;;5069534;28;20396;-75
2023/12/04 04:20:49;;;;;;;35.90;13.77;;;;;;;;;;5069864;28;20360;-75
2023/12/04 04:23:15;;;;;;;27.63;11.97;;;;;;;;;;5070151;28;20171;-76
2023/12/04 04:25:41;;;;;;;28.80;11.97;;;;;;;;;;5069218;28;20099;-76
2023/12/04 04:28:06;;;;;;;29.43;13.07;;;;;;;;;;5068138;28;20111;-75
2023/12/04 04:30:32;;;;;;;33.67;12.90;;;;;;;;;;5067879;28;20017;-73
2023/12/04 04:32:57;;;;;;;26.10;13.37;;;;;;;;;;5066858;28;20034;-76
2023/12/04 04:35:23;;;;;;;33.03;14.83;;;;;;;;;;5066947;28;20021;-75
2023/12/04 04:37:48;;;;;;;28.90;12.03;;;;;;;;;;5066732;28;20115;-76
2023/12/04 04:40:14;;;;;;;25.70;11.20;;;;;;;;;;5067294;28;20032;-76
2023/12/04 04:42:39;;;;;;;33.97;12.43;;;;;;;;;;5067533;28;20029;-78
2023/12/04 04:45:06;;;;;;;29.47;13.80;;;;;;;;;;5067642;28;20040;-77
2023/12/04 04:47:31;;;;;;;32.07;14.90;;;;;;;;;;5068800;28;20348;-77
2023/12/04 04:49:57;;;;;;;33.10;12.63;;;;;;;;;;5068322;28;20036;-76
2023/12/04 04:52:22;;;;;;;22.43;10.20;;;;;;;;;;5068404;28;20425;-78
2023/12/04 04:54:48;;;;;;;26.17;13.20;;;;;;;;;;5067233;28;20013;-76
2023/12/04 04:57:14;;;;;;;29.13;12.73;;;;;;;;;;5066907;28;20456;-77
2023/12/04 04:59:39;;;;;;;24.57;10.33;;;;;;;;;;5067306;28;20020;-76
2023/12/04 05:02:05;;;;;;;27.57;12.10;;;;;;;;;;5066650;28;20441;-76
2023/12/04 05:04:30;;;;;;;23.70;11.53;;;;;;;;;;5066576;28;20056;-75
2023/12/04 05:06:57;;;;;;;29.00;13.53;;;;;;;;;;5067199;28;20029;-75
2023/12/04 05:09:23;;;;;;;25.07;11.40;;;;;;;;;;5068395;28;20029;-75
2023/12/04 05:11:48;;;;;;;28.30;11.77;;;;;;;;;;5066995;28;20264;-76
2023/12/04 05:14:14;;;;;;;30.27;13.77;;;;;;;;;;5068205;28;20115;-74
2023/12/04 05:16:40;;;;;;;31.53;13.23;;;;;;;;;;5067019;28;20068;-75
2023/12/04 05:19:05;;;;;;;26.23;12.97;;;;;;;;;;5066943;28;20400;-74
2023/12/04 05:21:31;;;;;;;29.87;13.60;;;;;;;;;;5066978;28;20342;-73
2023/12/04 05:23:56;;;;;;;23.73;11.83;;;;;;;;;;5066838;28;20435;-76
2023/12/04 05:26:22;;;;;;;34.07;12.67;;;;;;;;;;5066555;28;20074;-75
2023/12/04 05:28:47;;;;;;;28.67;11.67;;;;;;;;;;5068575;28;20050;-75
2023/12/04 05:31:13;;;;;;;34.13;13.07;;;;;;;;;;5067888;28;20029;-75
2023/12/04 05:33:39;;;;;;;29.50;12.73;;;;;;;;;;5067025;28;20151;-76
2023/12/04 05:36:06;;;;;;;23.50;12.07;;;;;;;;;;5066707;28;20024;-74
2023/12/04 05:38:32;;;;;;;26.33;13.93;;;;;;;;;;5066412;28;20517;-75
2023/12/04 05:40:57;;;;;;;26.53;11.13;;;;;;;;;;5067315;28;20025;-76
2023/12/04 05:43:23;;;;;;;31.67;12.13;;;;;;;;;;5066812;28;20024;-76
2023/12/04 05:45:48;;;;;;;28.53;13.00;;;;;;;;;;5069482;28;20103;-76
2023/12/04 05:48:15;;;;;;;32.13;12.33;;;;;;;;;;5071490;28;20054;-76
2023/12/04 05:50:41;;;;;;;33.23;12.07;;;;;;;;;;5071998;28;20135;-75
2023/12/04 05:53:07;;;;;;;28.63;14.43;;;;;;;;;;5075199;28;20023;-75
2023/12/04 05:55:33;;;;;;;25.50;13.90;;;;;;;;;;5081117;28;20031;-76
2023/12/04 05:57:59;;;;;;;26.20;12.90;;;;;;;;;;5079107;28;20040;-75
2023/12/04 06:00:25;;;;;;;28.53;12.77;;;;;;;;;;5072350;28;20099;-74
2023/12/04 06:02:51;;;;;;;25.27;12.17;;;;;;;;;;5074548;28;20064;-75
2023/12/04 06:05:16;;;;;;;28.47;14.33;;;;;;;;;;5075635;28;20036;-75
2023/12/04 06:07:42;;;;;;;33.00;13.23;;;;;;;;;;5073794;28;20027;-76
2023/12/04 06:10:08;;;;;;;33.50;13.57;;;;;;;;;;5070561;28;20025;-76
2023/12/04 06:12:34;;;;;;;31.30;13.10;;;;;;;;;;5070120;28;20031;-76
2023/12/04 06:15:00;;;;;;;27.90;14.70;;;;;;;;;;5070104;28;20024;-77
2023/12/04 06:17:27;;;;;;;28.07;13.30;;;;;;;;;;5070300;28;20498;-76
2023/12/04 06:19:53;;;;;;;29.37;13.23;;;;;;;;;;5054919;28;20031;-77
2023/12/04 06:22:21;;;;;;;35.77;14.90;;;;;;;;;;5070585;28;20116;-75
2023/12/04 06:24:47;;;;;;;27.33;12.53;;;;;;;;;;5053024;28;20079;-75
2023/12/04 06:27:21;;;;;;;27.20;13.13;;;;;;;;;;5069968;28;20078;-73
2023/12/04 06:29:47;;;;;;;30.90;13.47;;;;;;;;;;5070160;28;20024;-74
2023/12/04 06:32:13;;;;;;;29.07;13.10;;;;;;;;;;5069970;28;20173;-75
2023/12/04 06:34:40;;;;;;;24.50;11.33;;;;;;;;;;5069870;28;20329;-75
2023/12/04 06:37:13;;;;;;;32.73;13.17;;;;;;;;;;5069904;28;20099;-75
2023/12/04 06:39:39;;;;;;;28.53;14.37;;;;;;;;;;5069733;28;20064;-76
2023/12/04 06:42:06;;;;;;;29.20;12.73;;;;;;;;;;5070006;28;20334;-76
2023/12/04 06:44:32;;;;;;;29.43;13.47;;;;;;;;;;5069437;28;20105;-72
2023/12/04 06:47:00;;;;;;;37.50;13.40;;;;;;;;;;5069783;28;20020;-76
2023/12/04 06:49:30;;;;;;;28.30;12.73;;;;;;;;;;5069393;28;20025;-76
2023/12/04 06:51:55;;;;;;;32.93;13.17;;;;;;;;;;5071267;28;20090;-77
2023/12/04 06:54:21;;;;;;;24.40;12.17;;;;;;;;;;5069975;28;20472;-76
2023/12/04 06:56:46;;;;;;;37.40;14.77;;;;;;;;;;5069381;28;20028;-77
2023/12/04 06:59:12;;;;;;;29.33;13.83;;;;;;;;;;5069278;28;20036;-76
2023/12/04 07:01:38;;;;;;;25.27;12.57;;;;;;;;;;5068760;28;20499;-76
2023/12/04 07:04:09;;;;;;;25.53;11.67;;;;;;;;;;5073323;28;20029;-74
2023/12/04 07:06:39;;;;;;;26.75;12.02;;;;;;;;;;5076703;28;20550;-77
2023/12/04 07:09:10;;;;;;;26.50;11.73;;;;;;;;;;5076856;28;20036;-75
2023/12/04 07:11:37;;;;;;;29.80;12.87;;;;;;;;;;5078272;28;20039;-73
2023/12/04 07:14:06;;;;;;;31.13;12.23;;;;;;;;;;5040021;28;20071;-74
2023/12/04 07:16:42;;;;;;;27.63;12.47;;;;;;;;;;5056595;28;20029;-76
2023/12/04 07:19:09;;;;;;;25.80;13.43;;;;;;;;;;5057406;28;20040;-76
2023/12/04 07:21:39;;;;;;;35.17;15.03;;;;;;;;;;5057764;28;20068;-75
2023/12/04 07:24:12;;;;;;;30.43;12.97;;;;;;;;;;5056929;28;20093;-75
2023/12/04 07:26:38;;;;;;;24.93;12.80;;;;;;;;;;5075585;28;20101;-76
2023/12/04 07:29:04;;;;;;;38.00;15.47;;;;;;;;;;5075905;28;20476;-77
2023/12/04 07:31:31;;;;;;;25.47;13.77;;;;;;;;;;5073310;28;20056;-74
2023/12/04 07:33:59;;;;;;;26.10;13.23;;;;;;;;;;5072194;28;20331;-75
2023/12/04 07:36:25;;;;;;;27.50;13.57;;;;;;;;;;5072727;28;20032;-74
2023/12/04 07:38:53;;;;;;;29.20;14.17;;;;;;;;;;5063307;28;20039;-77
2023/12/04 07:41:22;;;;;;;29.73;12.67;;;;;;;;;;5070002;28;20028;-77
2023/12/04 07:43:54;;;;;;;31.33;13.63;;;;;;;;;;5072761;28;20490;-75
2023/12/04 07:46:20;;;;;;;37.83;16.07;;;;;;;;;;5070009;28;20028;-73
2023/12/04 07:48:46;;;;;;;31.43;14.43;;;;;;;;;;5089574;28;20243;-75
2023/12/04 07:51:12;;;;;;;36.73;14.10;;;;;;;;;;5070638;28;20363;-78
2023/12/04 07:53:39;;;;;;;33.83;15.73;;;;;;;;;;5070709;28;20404;-76
2023/12/04 07:56:05;;;;;;;35.43;14.47;;;;;;;;;;5074114;28;20124;-76
2023/12/04 07:58:31;;;;;;;36.43;15.03;;;;;;;;;;5070315;28;20036;-74
2023/12/04 08:01:01;;;;;;;31.00;13.77;;;;;;;;;;5039894;28;20045;-72
2023/12/04 08:03:28;;;;;;;34.60;13.43;;;;;;;;;;5059425;28;20119;-74
2023/12/04 08:05:55;;;;;;;32.00;15.77;;;;;;;;;;5064752;28;20047;-74
2023/12/04 08:08:25;;;;;;;27.07;14.10;;;;;;;;;;5069136;28;20090;-75
2023/12/04 08:10:51;;;;;;;28.03;13.43;;;;;;;;;;5061584;28;20044;-74
2023/12/04 08:13:17;;;;;;;27.67;13.47;;;;;;;;;;5062120;28;20036;-72
2023/12/04 08:15:47;;;;;;;29.83;13.83;;;;;;;;;;5069069;28;20172;-73
2023/12/04 08:18:20;;;;;;;36.20;15.97;;;;;;;;;;5074638;28;20028;-73
2023/12/04 08:20:46;;;;;;;30.27;12.83;;;;;;;;;;5067279;28;20032;-75
2023/12/04 08:23:12;;;;;;;34.37;16.13;;;;;;;;;;5073704;28;20029;-72
2023/12/04 08:25:39;;;;;;;38.27;14.40;;;;;;;;;;5083373;28;20465;-73
2023/12/04 08:28:08;;;;;;;27.23;12.93;;;;;;;;;;5072426;28;20040;-72
2023/12/04 08:30:38;;;;;;;33.50;12.73;;;;;;;;;;5059606;28;20032;-74
2023/12/04 08:33:07;;;;;;;40.13;13.83;;;;;;;;;;5054334;28;20046;-75
2023/12/04 08:35:33;;;;;;;28.30;13.67;;;;;;;;;;5071252;28;20487;-73
2023/12/04 08:37:59;;;;;;;28.70;13.13;;;;;;;;;;5066444;28;20036;-74
2023/12/04 08:40:25;;;;;;;41.23;16.23;;;;;;;;;;5066328;28;20454;-76
2023/12/04 08:42:51;;;;;;;23.57;12.50;;;;;;;;;;5068839;28;20043;-73
2023/12/04 08:45:17;;;;;;;37.93;13.93;;;;;;;;;;5063199;28;20047;-71
2023/12/04 08:47:45;;;;;;;31.63;14.37;;;;;;;;;;5065214;28;20028;-76
2023/12/04 08:50:13;;;;;;;38.63;14.87;;;;;;;;;;5065276;28;20060;-73
2023/12/04 08:52:41;;;;;;;29.83;14.03;;;;;;;;;;5070638;28;20025;-75
2023/12/04 08:55:07;;;;;;;29.77;13.87;;;;;;;;;;5070963;28;20134;-73
2023/12/04 08:57:36;;;;;;;39.03;16.17;;;;;;;;;;5069679;28;20680;-76
2023/12/04 09:00:08;;;;;;;35.40;15.00;;;;;;;;;;5066634;28;20056;-72
2023/12/04 09:02:34;;;;;;;30.75;16.10;;;;;;;;;;5049836;28;20041;-74
2023/12/04 09:05:00;;;;;;;40.33;17.33;;;;;;;;;;5066430;28;20420;-72
2023/12/04 09:07:26;;;;;;;38.60;15.87;;;;;;;;;;5058914;28;20116;-72
2023/12/04 09:09:52;;;;;;;37.77;15.90;;;;;;;;;;5045024;28;20067;-74
2023/12/04 09:12:18;;;;;;;37.87;15.57;;;;;;;;;;5063981;28;20033;-74
2023/12/04 09:14:45;;;;;;;36.03;15.00;;;;;;;;;;5065262;28;20028;-71
2023/12/04 09:17:14;;;;;;;41.57;17.43;;;;;;;;;;5057992;28;20025;-72
2023/12/04 09:19:49;;;;;;;32.47;15.27;;;;;;;;;;5064328;28;20361;-72
2023/12/04 09:22:18;;;;;;;40.90;16.23;;;;;;;;;;5060943;28;20031;-70
2023/12/04 09:24:52;;;;;;;34.50;15.10;;;;;;;;;;5063311;28;20569;-71
2023/12/04 09:27:19;;;;;;;35.90;15.63;;;;;;;;;;5064816;28;20499;-74
2023/12/04 09:29:45;;;;;;;37.43;13.83;;;;;;;;;;5071603;28;20035;-74
2023/12/04 09:32:12;;;;;;;37.87;15.13;;;;;;;;;;5052782;28;20028;-73
2023/12/04 09:34:54;;;;;;;45.33;16.73;;;;;;;;;;5071428;28;20542;-72
2023/12/04 09:37:26;;;;;;;34.67;16.25;;;;;;;;;;5069570;28;20036;-74
2023/12/04 09:39:55;;;;;;;41.55;15.45;;;;;;;;;;5069371;28;20488;-73
2023/12/04 09:42:25;;;;;;;44.33;19.27;;;;;;;;;;5076547;28;20405;-73
2023/12/04 09:45:10;;;;;;;38.07;16.90;;;;;;;;;;5074151;28;20032;-72
2023/12/04 09:47:47;;;;;;;40.60;16.47;;;;;;;;;;5068541;28;20047;-72
2023/12/04 09:50:26;;;;;;;;;;;;;;;;;;;;;
2023/12/04 09:56:10;;;;;;;35.20;16.23;;;;;;;;;;5072041;28;19912;-70
2023/12/04 09:58:44;;;;;;;39.60;15.70;;;;;;;;;;5055890;28;20067;-72
2023/12/04 10:01:22;;;;;;;44.30;15.77;;;;;;;;;;5076121;28;20036;-73
2023/12/04 10:04:08;;;;;;;38.83;16.80;;;;;;;;;;5063163;28;20040;-70
2023/12/04 10:06:38;;;;;;;36.37;19.43;;;;;;;;;;5067994;28;20079;-74
2023/12/04 10:09:13;;;;;;;46.57;19.00;;;;;;;;;;5066535;28;20029;-74
2023/12/04 10:11:42;;;;;;;48.47;22.93;;;;;;;;;;5068077;28;20594;-72
2023/12/04 10:14:19;;;;;;;46.17;20.10;;;;;;;;;;5070213;28;20049;-72
2023/12/04 10:16:47;;;;;;;51.37;19.93;;;;;;;;;;5061121;28;20024;-72
2023/12/04 10:19:20;;;;;;;45.03;19.77;;;;;;;;;;5069900;28;20032;-73
2023/12/04 10:21:47;;;;;;;40.17;18.90;;;;;;;;;;5071443;28;20173;-72
2023/12/04 10:24:37;;;;;;;40.50;17.27;;;;;;;;;;5073191;28;20017;-73
2023/12/04 10:27:11;;;;;;;35.97;15.40;;;;;;;;;;5069055;28;20044;-73
2023/12/04 10:29:49;;;;;;;35.13;15.57;;;;;;;;;;5071883;28;20067;-75
2023/12/04 10:32:22;;;;;;;42.63;18.00;;;;;;;;;;5054724;28;20097;-73
2023/12/04 10:34:50;;;;;;;42.00;17.00;;;;;;;;;;5068840;28;20025;-73
2023/12/04 10:37:19;;;;;;;34.63;15.10;;;;;;;;;;5035588;28;20037;-75
2023/12/04 10:39:49;;;;;;;43.83;18.00;;;;;;;;;;5072414;28;20040;-73
2023/12/04 10:42:30;;;;;;;43.10;18.80;;;;;;;;;;5073037;28;20104;-74
2023/12/04 10:44:57;;;;;;;39.20;17.20;;;;;;;;;;5071165;28;20029;-74
2023/12/04 10:47:32;;;;;;;46.67;18.73;;;;;;;;;;5058597;28;20107;-73
2023/12/04 10:50:01;;;;;;;39.40;17.87;;;;;;;;;;5070880;28;20123;-73
2023/12/04 10:52:30;;;;;;;42.23;18.57;;;;;;;;;;5067522;28;20039;-76
2023/12/04 10:54:58;;;;;;;42.40;18.40;;;;;;;;;;5065986;28;20020;-72
2023/12/04 10:57:33;;;;;;;46.27;19.47;;;;;;;;;;5069096;28;20147;-73
2023/12/04 11:00:04;;;;;;;51.93;21.80;;;;;;;;;;5066692;28;20056;-74
2023/12/04 11:02:40;;;;;;;46.70;20.08;;;;;;;;;;5073122;28;20070;-72
2023/12/04 11:05:13;;;;;;;40.37;18.87;;;;;;;;;;5073114;28;20028;-75
2023/12/04 11:07:43;;;;;;;41.27;19.37;;;;;;;;;;5068084;28;20029;-76
2023/12/04 11:10:12;;;;;;;54.40;21.70;;;;;;;;;;5043587;28;20036;-74
2023/12/04 11:12:45;;;;;;;42.90;17.70;;;;;;;;;;5069670;28;20032;-77
2023/12/04 11:15:16;;;;;;;47.10;20.50;;;;;;;;;;5058291;28;20044;-73
2023/12/04 11:17:48;;;;;;;49.38;20.30;;;;;;;;;;5048953;28;20225;-75
2023/12/04 11:20:19;;;;;;;45.03;20.63;;;;;;;;;;5071461;28;20036;-75
2023/12/04 11:22:48;;;;;;;51.77;20.43;;;;;;;;;;5072756;28;20035;-73
2023/12/04 11:25:15;;;;;;;45.90;20.60;;;;;;;;;;5071046;28;20123;-72
2023/12/04 11:27:43;;;;;;;47.87;20.27;;;;;;;;;;5066254;28;20048;-75
2023/12/04 11:30:13;;;;;;;49.93;19.83;;;;;;;;;;5049793;28;20041;-75
2023/12/04 11:32:47;;;;;;;41.03;18.13;;;;;;;;;;5041660;28;20036;-73
2023/12/04 11:35:20;;;;;;;46.47;19.70;;;;;;;;;;5067555;28;20035;-77
2023/12/04 11:37:52;;;;;;;50.77;20.87;;;;;;;;;;5039646;28;20432;-74
2023/12/04 11:40:18;;;;;;;43.00;18.98;;;;;;;;;;5066791;28;20431;-74
2023/12/04 11:42:47;;;;;;;47.23;18.90;;;;;;;;;;5070353;28;20090;-74
2023/12/04 11:45:23;;;;;;;45.63;20.77;;;;;;;;;;5065331;28;20088;-71
2023/12/04 11:47:56;;;;;;;34.33;16.87;;;;;;;;;;5068733;28;20029;-74
2023/12/04 11:50:23;;;;;;;45.73;18.73;;;;;;;;;;5070420;28;20093;-73
2023/12/04 11:52:49;;;;;;;45.83;20.63;;;;;;;;;;5071722;28;20024;-72
2023/12/04 11:55:21;;;;;;;52.03;22.17;;;;;;;;;;5072825;28;20443;-73
2023/12/04 11:57:49;;;;;;;;;;;;;;;;;;5061956;28;20033;-73
2023/12/04 12:00:35;;;;;;;40.73;16.30;;;;;;;;;;5059431;28;20287;-77
2023/12/04 12:03:06;;;;;;;46.70;19.83;;;;;;;;;;5067034;28;20109;-72
2023/12/04 12:05:36;;;;;;;39.43;17.30;;;;;;;;;;5066694;28;20046;-72
2023/12/04 12:08:06;;;;;;;37.83;18.67;;;;;;;;;;5060838;28;20119;-74
2023/12/04 12:10:33;;;;;;;46.63;20.47;;;;;;;;;;5059565;28;20066;-72
2023/12/04 12:13:01;;;;;;;45.03;21.30;;;;;;;;;;5069865;28;20040;-76
2023/12/04 12:15:27;;;;;;;51.10;19.23;;;;;;;;;;5051551;28;20039;-73
2023/12/04 12:17:53;;;;;;;41.07;18.03;;;;;;;;;;5062984;28;20078;-74
2023/12/04 12:20:24;;;;;;;45.00;19.77;;;;;;;;;;5050346;28;20310;-73
2023/12/04 12:22:55;;;;;;;50.57;21.30;;;;;;;;;;5062733;28;20032;-71
2023/12/04 12:25:22;;;;;;;44.43;20.27;;;;;;;;;;5068186;28;20043;-72
2023/12/04 12:27:51;;;;;;;46.27;19.03;;;;;;;;;;5052518;28;20060;-71
2023/12/04 12:30:18;;;;;;;47.80;20.57;;;;;;;;;;5074794;28;20028;-73
2023/12/04 12:32:44;;;;;;;46.03;21.07;;;;;;;;;;5070352;28;20035;-75
2023/12/04 12:35:15;;;;;;;47.33;20.93;;;;;;;;;;5068775;28;20077;-74
2023/12/04 12:37:41;;;;;;;43.17;19.77;;;;;;;;;;5059840;28;20020;-73
2023/12/04 12:40:09;;;;;;;47.10;19.83;;;;;;;;;;5067260;28;20362;-72
2023/12/04 12:42:37;;;;;;;52.60;21.73;;;;;;;;;;5069975;28;20041;-73
2023/12/04 12:45:16;;;;;;;48.43;18.87;;;;;;;;;;5070523;28;20035;-75
2023/12/04 12:47:43;;;;;;;36.17;17.40;;;;;;;;;;5063972;28;20109;-75
2023/12/04 12:50:10;;;;;;;38.90;19.07;;;;;;;;;;5069727;28;20024;-75
2023/12/04 12:52:40;;;;;;;47.33;19.83;;;;;;;;;;5070995;28;20083;-75
2023/12/04 12:55:09;;;;;;;45.20;18.67;;;;;;;;;;5071506;28;20024;-74
2023/12/04 12:57:37;;;;;;;56.67;21.83;;;;;;;;;;5063885;28;20037;-74
2023/12/04 13:00:05;;;;;;;40.30;17.80;;;;;;;;;;5069530;28;20115;-74
2023/12/04 13:02:35;;;;;;;46.10;19.07;;;;;;;;;;5067861;28;20036;-72
2023/12/04 13:05:07;;;;;;;43.73;18.10;;;;;;;;;;5070860;28;20151;-72
2023/12/04 13:07:38;;;;;;;45.63;20.37;;;;;;;;;;5068843;28;20041;-75
2023/12/04 13:10:08;;;;;;;43.20;17.93;;;;;;;;;;5073314;28;20028;-73
2023/12/04 13:12:36;;;;;;;40.60;17.45;;;;;;;;;;5072671;28;20540;-73
2023/12/04 13:15:05;;;;;;;42.33;17.00;;;;;;;;;;5063095;28;20060;-72
2023/12/04 13:17:36;;;;;;;43.27;17.67;;;;;;;;;;5063599;28;20032;-72
2023/12/04 13:20:08;;;;;;;43.37;19.47;;;;;;;;;;5065266;28;20135;-74
2023/12/04 13:22:34;;;;;;;42.22;18.17;;;;;;;;;;5070918;28;20039;-76
2023/12/04 13:25:02;;;;;;;42.87;15.93;;;;;;;;;;5068330;28;20097;-73
2023/12/04 13:27:28;;;;;;;38.10;16.90;;;;;;;;;;5064853;28;20045;-73
2023/12/04 13:30:04;;;;;;;39.60;16.77;;;;;;;;;;5065147;28;20028;-74
2023/12/04 13:32:30;;;;;;;40.43;17.60;;;;;;;;;;5067871;28;20389;-74
2023/12/04 13:34:56;;;;;;;46.80;18.20;;;;;;;;;;5060047;28;20032;-74
2023/12/04 13:37:23;;;;;;;44.13;17.27;;;;;;;;;;5059618;28;20507;-73
2023/12/04 13:39:51;;;;;;;38.20;15.70;;;;;;;;;;5067177;28;20052;-74
2023/12/04 13:45:04;;;;;;;42.83;17.60;;;;;;;;;;5071559;28;20411;-73
2023/12/04 13:47:31;;;;;;;40.93;16.27;;;;;;;;;;5050940;28;20033;-76
2023/12/04 13:49:58;;;;;;;36.93;17.50;;;;;;;;;;5061687;28;20029;-73
2023/12/04 13:52:32;;;;;;;38.30;16.80;;;;;;;;;;5068606;28;20489;-75
2023/12/04 13:54:58;;;;;;;42.97;17.67;;;;;;;;;;5064319;28;20535;-73
2023/12/04 13:57:32;;;;;;;35.07;15.60;;;;;;;;;;5066538;28;20039;-73
2023/12/04 14:00:01;;;;;;;35.97;16.53;;;;;;;;;;5065686;28;20028;-75
2023/12/04 14:02:27;;;;;;;35.00;15.73;;;;;;;;;;5071660;28;20028;-73
2023/12/04 14:04:55;;;;;;;38.03;16.47;;;;;;;;;;5076464;28;20389;-74
2023/12/04 14:07:24;;;;;;;35.57;15.43;;;;;;;;;;5071869;28;20037;-76
2023/12/04 14:09:50;;;;;;;34.83;16.80;;;;;;;;;;5067493;28;20082;-74
2023/12/04 14:12:16;;;;;;;33.13;15.93;;;;;;;;;;5069397;28;20480;-75
2023/12/04 14:14:43;;;;;;;33.53;15.27;;;;;;;;;;5054493;28;20119;-73
2023/12/04 14:17:11;;;;;;;35.83;15.80;;;;;;;;;;5047451;28;20170;-73
2023/12/04 14:19:41;;;;;;;38.40;17.30;;;;;;;;;;5069870;28;20070;-75
2023/12/04 14:22:11;;;;;;;36.17;16.90;;;;;;;;;;5071268;28;20495;-72
2023/12/04 14:24:40;;;;;;;31.40;15.60;;;;;;;;;;5069826;28;20804;-73
2023/12/04 14:27:06;;;;;;;31.23;15.10;;;;;;;;;;5064812;28;20032;-73